sensor_id;sensor_type;location;lat;lon;timestamp;P1;durP1;ratioP1;P2;durP2;ratioP2
16179;SDS011;8196;49.428;10.906;2023-03-16T00:02:02;7.82;;;6.75;;
16179;SDS011;8196;49.428;10.906;2023-03-16T00:06:57;8.43;;;6.75;;
16179;SDS011;8196;49.428;10.906;2023-03-16T00:09:24;8.50;;;6.70;;
16179;SDS011;8196;49.428;10.906;2023-03-16T00:11:56;8.90;;;6.57;;
16179;SDS011;8196;49.428;10.906;2023-03-16T00:14:24;7.32;;;6.07;;
16179;SDS011;8196;49.428;10.906;2023-03-16T00:16:51;6.68;;;5.97;;
16179;SDS011;8196;49.428;10.906;2023-03-16T00:19:18;8.18;;;6.20;;
16179;SDS011;8196;49.428;10.906;2023-03-16T00:21:49;7.05;;;6.10;;
16179;SDS011;8196;49.428;10.906;2023-03-16T00:24:17;8.52;;;6.43;;
16179;SDS011;8196;49.428;10.906;2023-03-16T00:26:45;7.47;;;5.90;;
16179;SDS011;8196;49.428;10.906;2023-03-16T00:29:12;8.05;;;6.55;;
16179;SDS011;8196;49.428;10.906;2023-03-16T00:31:40;8.48;;;7.00;;
16179;SDS011;8196;49.428;10.906;2023-03-16T00:34:10;6.78;;;6.07;;
16179;SDS011;8196;49.428;10.906;2023-03-16T00:36:37;7.50;;;6.22;;
16179;SDS011;8196;49.428;10.906;2023-03-16T00:39:05;7.25;;;5.65;;
16179;SDS011;8196;49.428;10.906;2023-03-16T00:41:32;7.50;;;5.85;;
16179;SDS011;8196;49.428;10.906;2023-03-16T00:44:03;7.30;;;5.77;;
16179;SDS011;8196;49.428;10.906;2023-03-16T00:46:30;7.38;;;6.10;;
16179;SDS011;8196;49.428;10.906;2023-03-16T00:48:58;7.80;;;6.13;;
16179;SDS011;8196;49.428;10.906;2023-03-16T00:51:27;7.70;;;5.90;;
16179;SDS011;8196;49.428;10.906;2023-03-16T00:53:58;7.20;;;6.13;;
16179;SDS011;8196;49.428;10.906;2023-03-16T00:56:26;7.75;;;6.07;;
16179;SDS011;8196;49.428;10.906;2023-03-16T00:58:54;8.43;;;6.57;;
16179;SDS011;8196;49.428;10.906;2023-03-16T01:01:23;7.72;;;6.28;;
16179;SDS011;8196;49.428;10.906;2023-03-16T01:03:50;7.93;;;6.50;;
16179;SDS011;8196;49.428;10.906;2023-03-16T01:06:17;8.40;;;6.60;;
16179;SDS011;8196;49.428;10.906;2023-03-16T01:08:45;8.25;;;6.32;;
16179;SDS011;8196;49.428;10.906;2023-03-16T01:11:14;7.57;;;6.35;;
16179;SDS011;8196;49.428;10.906;2023-03-16T01:13:42;7.30;;;6.18;;
16179;SDS011;8196;49.428;10.906;2023-03-16T01:16:09;8.90;;;6.30;;
16179;SDS011;8196;49.428;10.906;2023-03-16T01:18:36;7.68;;;6.10;;
16179;SDS011;8196;49.428;10.906;2023-03-16T01:21:04;7.50;;;5.83;;
16179;SDS011;8196;49.428;10.906;2023-03-16T01:23:33;8.87;;;7.00;;
16179;SDS011;8196;49.428;10.906;2023-03-16T01:26:00;6.63;;;5.72;;
16179;SDS011;8196;49.428;10.906;2023-03-16T01:28:28;7.90;;;6.22;;
16179;SDS011;8196;49.428;10.906;2023-03-16T01:30:59;8.18;;;6.63;;
16179;SDS011;8196;49.428;10.906;2023-03-16T01:33:27;7.68;;;6.72;;
16179;SDS011;8196;49.428;10.906;2023-03-16T01:35:55;7.75;;;6.43;;
16179;SDS011;8196;49.428;10.906;2023-03-16T01:38:23;7.60;;;6.10;;
16179;SDS011;8196;49.428;10.906;2023-03-16T01:40:50;8.23;;;6.57;;
16179;SDS011;8196;49.428;10.906;2023-03-16T01:43:19;8.20;;;6.75;;
16179;SDS011;8196;49.428;10.906;2023-03-16T01:51:04;9.82;;;7.32;;
16179;SDS011;8196;49.428;10.906;2023-03-16T01:53:33;12.38;;;8.70;;
16179;SDS011;8196;49.428;10.906;2023-03-16T01:56:01;9.18;;;7.50;;
16179;SDS011;8196;49.428;10.906;2023-03-16T01:58:33;12.55;;;8.20;;
16179;SDS011;8196;49.428;10.906;2023-03-16T02:01:01;13.00;;;8.30;;
16179;SDS011;8196;49.428;10.906;2023-03-16T02:03:28;12.85;;;9.18;;
16179;SDS011;8196;49.428;10.906;2023-03-16T02:08:24;12.23;;;8.70;;
16179;SDS011;8196;49.428;10.906;2023-03-16T02:10:53;12.95;;;8.93;;
16179;SDS011;8196;49.428;10.906;2023-03-16T02:13:22;12.02;;;8.80;;
16179;SDS011;8196;49.428;10.906;2023-03-16T02:15:50;13.65;;;9.15;;
16179;SDS011;8196;49.428;10.906;2023-03-16T02:18:18;28.17;;;12.07;;
16179;SDS011;8196;49.428;10.906;2023-03-16T02:23:15;23.37;;;11.67;;
16179;SDS011;8196;49.428;10.906;2023-03-16T02:28:27;16.13;;;9.95;;
16179;SDS011;8196;49.428;10.906;2023-03-16T02:30:56;14.67;;;9.90;;
16179;SDS011;8196;49.428;10.906;2023-03-16T02:33:23;24.70;;;13.15;;
16179;SDS011;8196;49.428;10.906;2023-03-16T02:35:51;26.60;;;12.25;;
16179;SDS011;8196;49.428;10.906;2023-03-16T02:38:18;26.10;;;12.55;;
16179;SDS011;8196;49.428;10.906;2023-03-16T02:40:51;17.92;;;10.45;;
16179;SDS011;8196;49.428;10.906;2023-03-16T02:43:24;20.17;;;10.37;;
16179;SDS011;8196;49.428;10.906;2023-03-16T02:45:58;16.65;;;8.77;;
16179;SDS011;8196;49.428;10.906;2023-03-16T02:51:15;15.50;;;9.27;;
16179;SDS011;8196;49.428;10.906;2023-03-16T02:53:42;12.15;;;8.60;;
16179;SDS011;8196;49.428;10.906;2023-03-16T02:56:09;15.47;;;9.23;;
16179;SDS011;8196;49.428;10.906;2023-03-16T02:58:36;14.00;;;8.90;;
16179;SDS011;8196;49.428;10.906;2023-03-16T03:01:02;14.70;;;8.90;;
16179;SDS011;8196;49.428;10.906;2023-03-16T03:03:29;17.60;;;9.90;;
16179;SDS011;8196;49.428;10.906;2023-03-16T03:05:59;15.02;;;8.68;;
16179;SDS011;8196;49.428;10.906;2023-03-16T03:08:28;13.93;;;8.67;;
16179;SDS011;8196;49.428;10.906;2023-03-16T03:10:55;15.50;;;9.70;;
16179;SDS011;8196;49.428;10.906;2023-03-16T03:13:22;17.10;;;10.52;;
16179;SDS011;8196;49.428;10.906;2023-03-16T03:15:49;18.23;;;10.38;;
16179;SDS011;8196;49.428;10.906;2023-03-16T03:18:17;18.00;;;10.70;;
16179;SDS011;8196;49.428;10.906;2023-03-16T03:20:44;15.95;;;10.75;;
16179;SDS011;8196;49.428;10.906;2023-03-16T03:23:12;15.82;;;10.07;;
16179;SDS011;8196;49.428;10.906;2023-03-16T03:25:40;19.92;;;11.00;;
16179;SDS011;8196;49.428;10.906;2023-03-16T03:28:07;15.27;;;10.18;;
16179;SDS011;8196;49.428;10.906;2023-03-16T03:30:34;14.65;;;10.15;;
16179;SDS011;8196;49.428;10.906;2023-03-16T03:33:02;19.83;;;9.90;;
16179;SDS011;8196;49.428;10.906;2023-03-16T03:35:29;11.10;;;9.32;;
16179;SDS011;8196;49.428;10.906;2023-03-16T03:37:56;15.30;;;9.68;;
16179;SDS011;8196;49.428;10.906;2023-03-16T03:40:24;12.93;;;9.60;;
16179;SDS011;8196;49.428;10.906;2023-03-16T03:42:51;13.25;;;9.32;;
16179;SDS011;8196;49.428;10.906;2023-03-16T03:45:18;14.75;;;9.25;;
16179;SDS011;8196;49.428;10.906;2023-03-16T03:47:45;14.82;;;9.43;;
16179;SDS011;8196;49.428;10.906;2023-03-16T03:50:13;11.52;;;8.18;;
16179;SDS011;8196;49.428;10.906;2023-03-16T03:52:40;10.05;;;7.82;;
16179;SDS011;8196;49.428;10.906;2023-03-16T03:55:08;10.55;;;7.85;;
16179;SDS011;8196;49.428;10.906;2023-03-16T03:57:35;10.18;;;8.60;;
16179;SDS011;8196;49.428;10.906;2023-03-16T04:00:03;12.02;;;8.60;;
16179;SDS011;8196;49.428;10.906;2023-03-16T04:02:34;12.95;;;9.15;;
16179;SDS011;8196;49.428;10.906;2023-03-16T04:05:01;14.95;;;9.20;;
16179;SDS011;8196;49.428;10.906;2023-03-16T04:07:29;13.00;;;8.80;;
16179;SDS011;8196;49.428;10.906;2023-03-16T04:09:56;10.43;;;8.70;;
16179;SDS011;8196;49.428;10.906;2023-03-16T04:12:23;10.87;;;9.10;;
16179;SDS011;8196;49.428;10.906;2023-03-16T04:14:50;13.30;;;8.73;;
16179;SDS011;8196;49.428;10.906;2023-03-16T04:17:17;12.15;;;9.05;;
16179;SDS011;8196;49.428;10.906;2023-03-16T04:19:44;11.20;;;8.77;;
16179;SDS011;8196;49.428;10.906;2023-03-16T04:22:12;14.85;;;10.48;;
16179;SDS011;8196;49.428;10.906;2023-03-16T04:24:39;11.93;;;9.57;;
16179;SDS011;8196;49.428;10.906;2023-03-16T04:27:08;11.17;;;8.97;;
16179;SDS011;8196;49.428;10.906;2023-03-16T04:29:37;12.50;;;9.40;;
16179;SDS011;8196;49.428;10.906;2023-03-16T04:32:05;13.45;;;9.82;;
16179;SDS011;8196;49.428;10.906;2023-03-16T04:34:32;12.93;;;10.23;;
16179;SDS011;8196;49.428;10.906;2023-03-16T04:37:00;15.43;;;10.98;;
16179;SDS011;8196;49.428;10.906;2023-03-16T04:39:27;16.73;;;12.00;;
16179;SDS011;8196;49.428;10.906;2023-03-16T04:41:54;21.33;;;11.98;;
16179;SDS011;8196;49.428;10.906;2023-03-16T04:44:21;28.42;;;13.43;;
16179;SDS011;8196;49.428;10.906;2023-03-16T04:46:50;16.17;;;11.02;;
16179;SDS011;8196;49.428;10.906;2023-03-16T04:49:18;16.63;;;11.20;;
16179;SDS011;8196;49.428;10.906;2023-03-16T04:51:45;28.67;;;12.95;;
16179;SDS011;8196;49.428;10.906;2023-03-16T04:54:12;27.58;;;12.10;;
16179;SDS011;8196;49.428;10.906;2023-03-16T04:56:39;30.75;;;13.07;;
16179;SDS011;8196;49.428;10.906;2023-03-16T04:59:06;18.25;;;11.73;;
16179;SDS011;8196;49.428;10.906;2023-03-16T05:01:34;24.98;;;13.07;;
16179;SDS011;8196;49.428;10.906;2023-03-16T05:04:01;22.00;;;11.90;;
16179;SDS011;8196;49.428;10.906;2023-03-16T05:06:28;18.50;;;12.73;;
16179;SDS011;8196;49.428;10.906;2023-03-16T05:08:57;18.20;;;11.77;;
16179;SDS011;8196;49.428;10.906;2023-03-16T05:11:24;21.88;;;12.95;;
16179;SDS011;8196;49.428;10.906;2023-03-16T05:13:52;18.85;;;12.23;;
16179;SDS011;8196;49.428;10.906;2023-03-16T05:16:19;22.17;;;13.67;;
16179;SDS011;8196;49.428;10.906;2023-03-16T05:18:46;22.85;;;13.57;;
16179;SDS011;8196;49.428;10.906;2023-03-16T05:21:13;17.58;;;11.40;;
16179;SDS011;8196;49.428;10.906;2023-03-16T05:23:41;22.13;;;12.52;;
16179;SDS011;8196;49.428;10.906;2023-03-16T05:26:08;18.73;;;12.80;;
16179;SDS011;8196;49.428;10.906;2023-03-16T05:28:35;19.88;;;11.98;;
16179;SDS011;8196;49.428;10.906;2023-03-16T05:31:03;21.85;;;12.23;;
16179;SDS011;8196;49.428;10.906;2023-03-16T05:33:30;19.43;;;11.97;;
16179;SDS011;8196;49.428;10.906;2023-03-16T05:35:57;22.08;;;11.57;;
16179;SDS011;8196;49.428;10.906;2023-03-16T05:38:24;16.48;;;11.60;;
16179;SDS011;8196;49.428;10.906;2023-03-16T05:40:52;16.17;;;10.88;;
16179;SDS011;8196;49.428;10.906;2023-03-16T05:43:20;15.35;;;11.38;;
16179;SDS011;8196;49.428;10.906;2023-03-16T05:45:48;17.47;;;11.63;;
16179;SDS011;8196;49.428;10.906;2023-03-16T05:48:15;15.77;;;10.95;;
16179;SDS011;8196;49.428;10.906;2023-03-16T05:50:42;15.93;;;11.40;;
16179;SDS011;8196;49.428;10.906;2023-03-16T05:53:09;22.05;;;13.82;;
16179;SDS011;8196;49.428;10.906;2023-03-16T05:55:36;18.90;;;13.18;;
16179;SDS011;8196;49.428;10.906;2023-03-16T05:58:03;19.35;;;12.43;;
16179;SDS011;8196;49.428;10.906;2023-03-16T06:00:31;17.17;;;12.23;;
16179;SDS011;8196;49.428;10.906;2023-03-16T06:02:58;18.30;;;12.45;;
16179;SDS011;8196;49.428;10.906;2023-03-16T06:05:25;17.05;;;11.88;;
16179;SDS011;8196;49.428;10.906;2023-03-16T06:07:53;15.68;;;11.80;;
16179;SDS011;8196;49.428;10.906;2023-03-16T06:10:20;13.85;;;10.50;;
16179;SDS011;8196;49.428;10.906;2023-03-16T06:12:47;14.73;;;10.43;;
16179;SDS011;8196;49.428;10.906;2023-03-16T06:15:15;14.90;;;11.00;;
16179;SDS011;8196;49.428;10.906;2023-03-16T06:17:42;16.17;;;11.15;;
16179;SDS011;8196;49.428;10.906;2023-03-16T06:20:09;16.77;;;12.35;;
16179;SDS011;8196;49.428;10.906;2023-03-16T06:22:38;15.95;;;11.73;;
16179;SDS011;8196;49.428;10.906;2023-03-16T06:25:06;16.38;;;11.93;;
16179;SDS011;8196;49.428;10.906;2023-03-16T06:27:35;16.48;;;12.60;;
16179;SDS011;8196;49.428;10.906;2023-03-16T06:30:02;16.05;;;12.70;;
16179;SDS011;8196;49.428;10.906;2023-03-16T06:32:31;16.40;;;12.97;;
16179;SDS011;8196;49.428;10.906;2023-03-16T06:34:58;13.27;;;10.90;;
16179;SDS011;8196;49.428;10.906;2023-03-16T06:37:27;14.80;;;11.68;;
16179;SDS011;8196;49.428;10.906;2023-03-16T06:39:55;12.82;;;9.88;;
16179;SDS011;8196;49.428;10.906;2023-03-16T06:42:21;11.65;;;9.32;;
16179;SDS011;8196;49.428;10.906;2023-03-16T06:44:49;12.40;;;9.35;;
16179;SDS011;8196;49.428;10.906;2023-03-16T06:47:16;12.45;;;10.45;;
16179;SDS011;8196;49.428;10.906;2023-03-16T06:49:43;12.90;;;10.50;;
16179;SDS011;8196;49.428;10.906;2023-03-16T06:52:12;15.48;;;11.93;;
16179;SDS011;8196;49.428;10.906;2023-03-16T06:54:40;13.98;;;10.40;;
16179;SDS011;8196;49.428;10.906;2023-03-16T06:57:07;13.93;;;10.75;;
16179;SDS011;8196;49.428;10.906;2023-03-16T06:59:34;12.82;;;10.27;;
16179;SDS011;8196;49.428;10.906;2023-03-16T07:02:01;12.50;;;10.70;;
16179;SDS011;8196;49.428;10.906;2023-03-16T07:04:28;12.05;;;10.20;;
16179;SDS011;8196;49.428;10.906;2023-03-16T07:06:56;11.70;;;9.65;;
16179;SDS011;8196;49.428;10.906;2023-03-16T07:09:23;11.40;;;9.43;;
16179;SDS011;8196;49.428;10.906;2023-03-16T07:11:50;12.07;;;10.20;;
16179;SDS011;8196;49.428;10.906;2023-03-16T07:14:18;11.18;;;9.98;;
16179;SDS011;8196;49.428;10.906;2023-03-16T07:16:46;10.80;;;9.57;;
16179;SDS011;8196;49.428;10.906;2023-03-16T07:19:13;10.88;;;8.93;;
16179;SDS011;8196;49.428;10.906;2023-03-16T07:21:39;11.90;;;9.82;;
16179;SDS011;8196;49.428;10.906;2023-03-16T07:24:07;11.10;;;9.55;;
16179;SDS011;8196;49.428;10.906;2023-03-16T07:26:35;11.80;;;10.00;;
16179;SDS011;8196;49.428;10.906;2023-03-16T07:29:02;11.20;;;9.57;;
16179;SDS011;8196;49.428;10.906;2023-03-16T07:31:32;11.45;;;9.93;;
16179;SDS011;8196;49.428;10.906;2023-03-16T07:33:59;23.98;;;17.90;;
16179;SDS011;8196;49.428;10.906;2023-03-16T07:36:27;19.75;;;15.93;;
16179;SDS011;8196;49.428;10.906;2023-03-16T07:38:54;12.00;;;9.98;;
16179;SDS011;8196;49.428;10.906;2023-03-16T07:41:23;10.32;;;9.10;;
16179;SDS011;8196;49.428;10.906;2023-03-16T07:43:50;13.20;;;9.43;;
16179;SDS011;8196;49.428;10.906;2023-03-16T07:46:18;10.40;;;8.68;;
16179;SDS011;8196;49.428;10.906;2023-03-16T07:48:45;11.70;;;9.55;;
16179;SDS011;8196;49.428;10.906;2023-03-16T07:51:12;10.50;;;8.70;;
16179;SDS011;8196;49.428;10.906;2023-03-16T07:53:39;9.70;;;8.07;;
16179;SDS011;8196;49.428;10.906;2023-03-16T07:56:08;10.35;;;8.25;;
16179;SDS011;8196;49.428;10.906;2023-03-16T07:58:34;10.10;;;9.00;;
16179;SDS011;8196;49.428;10.906;2023-03-16T08:01:01;9.07;;;8.07;;
16179;SDS011;8196;49.428;10.906;2023-03-16T08:03:29;9.57;;;8.32;;
16179;SDS011;8196;49.428;10.906;2023-03-16T08:05:57;9.18;;;7.80;;
16179;SDS011;8196;49.428;10.906;2023-03-16T08:08:24;10.27;;;8.00;;
16179;SDS011;8196;49.428;10.906;2023-03-16T08:10:51;10.52;;;7.43;;
16179;SDS011;8196;49.428;10.906;2023-03-16T08:13:21;7.97;;;7.07;;
16179;SDS011;8196;49.428;10.906;2023-03-16T08:15:48;7.60;;;6.82;;
16179;SDS011;8196;49.428;10.906;2023-03-16T08:18:24;9.80;;;7.57;;
16179;SDS011;8196;49.428;10.906;2023-03-16T08:20:51;8.88;;;7.38;;
16179;SDS011;8196;49.428;10.906;2023-03-16T08:23:18;8.10;;;7.30;;
16179;SDS011;8196;49.428;10.906;2023-03-16T08:25:46;7.80;;;7.00;;
16179;SDS011;8196;49.428;10.906;2023-03-16T08:28:16;7.15;;;6.43;;
16179;SDS011;8196;49.428;10.906;2023-03-16T08:30:46;7.15;;;6.47;;
16179;SDS011;8196;49.428;10.906;2023-03-16T08:33:16;6.75;;;6.05;;
16179;SDS011;8196;49.428;10.906;2023-03-16T08:35:48;7.30;;;6.18;;
16179;SDS011;8196;49.428;10.906;2023-03-16T08:38:14;7.28;;;6.57;;
16179;SDS011;8196;49.428;10.906;2023-03-16T08:40:41;7.10;;;6.25;;
16179;SDS011;8196;49.428;10.906;2023-03-16T08:43:14;7.50;;;6.65;;
16179;SDS011;8196;49.428;10.906;2023-03-16T08:45:43;7.00;;;6.30;;
16179;SDS011;8196;49.428;10.906;2023-03-16T08:48:11;6.07;;;5.43;;
16179;SDS011;8196;49.428;10.906;2023-03-16T08:50:40;6.28;;;5.40;;
16179;SDS011;8196;49.428;10.906;2023-03-16T08:53:09;5.68;;;4.97;;
16179;SDS011;8196;49.428;10.906;2023-03-16T08:55:37;4.80;;;4.38;;
16179;SDS011;8196;49.428;10.906;2023-03-16T08:58:03;5.35;;;4.57;;
16179;SDS011;8196;49.428;10.906;2023-03-16T09:00:30;5.28;;;4.38;;
16179;SDS011;8196;49.428;10.906;2023-03-16T09:02:57;5.33;;;4.80;;
16179;SDS011;8196;49.428;10.906;2023-03-16T09:05:24;5.28;;;4.72;;
16179;SDS011;8196;49.428;10.906;2023-03-16T09:07:51;4.80;;;4.30;;
16179;SDS011;8196;49.428;10.906;2023-03-16T09:10:19;4.43;;;4.03;;
16179;SDS011;8196;49.428;10.906;2023-03-16T09:12:48;5.35;;;3.90;;
16179;SDS011;8196;49.428;10.906;2023-03-16T09:15:18;4.63;;;3.87;;
16179;SDS011;8196;49.428;10.906;2023-03-16T09:17:46;4.57;;;3.75;;
16179;SDS011;8196;49.428;10.906;2023-03-16T09:20:14;3.77;;;3.37;;
16179;SDS011;8196;49.428;10.906;2023-03-16T09:22:51;3.92;;;3.30;;
16179;SDS011;8196;49.428;10.906;2023-03-16T09:25:19;3.97;;;3.17;;
16179;SDS011;8196;49.428;10.906;2023-03-16T09:27:47;3.53;;;2.75;;
16179;SDS011;8196;49.428;10.906;2023-03-16T09:30:14;4.20;;;2.50;;
16179;SDS011;8196;49.428;10.906;2023-03-16T09:32:42;3.30;;;2.50;;
16179;SDS011;8196;49.428;10.906;2023-03-16T09:35:09;2.50;;;2.30;;
16179;SDS011;8196;49.428;10.906;2023-03-16T09:37:37;3.60;;;2.30;;
16179;SDS011;8196;49.428;10.906;2023-03-16T09:40:16;2.72;;;2.00;;
16179;SDS011;8196;49.428;10.906;2023-03-16T09:42:53;2.50;;;1.77;;
16179;SDS011;8196;49.428;10.906;2023-03-16T09:45:36;2.75;;;1.77;;
16179;SDS011;8196;49.428;10.906;2023-03-16T09:48:12;1.80;;;1.70;;
16179;SDS011;8196;49.428;10.906;2023-03-16T09:50:42;2.92;;;1.88;;
16179;SDS011;8196;49.428;10.906;2023-03-16T09:55:52;2.70;;;1.98;;
16179;SDS011;8196;49.428;10.906;2023-03-16T09:58:23;2.05;;;1.75;;
16179;SDS011;8196;49.428;10.906;2023-03-16T10:01:00;1.65;;;1.55;;
16179;SDS011;8196;49.428;10.906;2023-03-16T10:03:58;2.38;;;1.75;;
16179;SDS011;8196;49.428;10.906;2023-03-16T10:06:37;3.47;;;1.70;;
16179;SDS011;8196;49.428;10.906;2023-03-16T10:11:58;2.00;;;1.80;;
16179;SDS011;8196;49.428;10.906;2023-03-16T10:14:38;2.25;;;1.90;;
16179;SDS011;8196;49.428;10.906;2023-03-16T10:19:52;3.20;;;2.10;;
16179;SDS011;8196;49.428;10.906;2023-03-16T10:22:24;3.55;;;2.50;;
16179;SDS011;8196;49.428;10.906;2023-03-16T10:25:01;3.88;;;2.40;;
16179;SDS011;8196;49.428;10.906;2023-03-16T10:27:34;4.20;;;2.70;;
16179;SDS011;8196;49.428;10.906;2023-03-16T10:30:09;4.05;;;2.72;;
16179;SDS011;8196;49.428;10.906;2023-03-16T10:32:44;3.70;;;1.95;;
16179;SDS011;8196;49.428;10.906;2023-03-16T10:37:58;2.30;;;2.10;;
16179;SDS011;8196;49.428;10.906;2023-03-16T10:40:26;2.55;;;1.67;;
16179;SDS011;8196;49.428;10.906;2023-03-16T10:43:04;3.38;;;1.70;;
16179;SDS011;8196;49.428;10.906;2023-03-16T10:45:33;2.70;;;1.60;;
16179;SDS011;8196;49.428;10.906;2023-03-16T10:48:04;1.92;;;1.50;;
16179;SDS011;8196;49.428;10.906;2023-03-16T10:50:33;1.75;;;1.60;;
16179;SDS011;8196;49.428;10.906;2023-03-16T10:53:01;2.40;;;1.67;;
16179;SDS011;8196;49.428;10.906;2023-03-16T10:55:29;1.63;;;1.53;;
16179;SDS011;8196;49.428;10.906;2023-03-16T10:58:07;2.45;;;1.50;;
16179;SDS011;8196;49.428;10.906;2023-03-16T11:00:35;1.70;;;1.60;;
16179;SDS011;8196;49.428;10.906;2023-03-16T11:05:59;2.60;;;1.73;;
16179;SDS011;8196;49.428;10.906;2023-03-16T11:08:33;2.33;;;1.50;;
16179;SDS011;8196;49.428;10.906;2023-03-16T11:11:12;3.38;;;1.67;;
16179;SDS011;8196;49.428;10.906;2023-03-16T11:13:43;1.88;;;1.70;;
16179;SDS011;8196;49.428;10.906;2023-03-16T11:19:08;2.78;;;1.63;;
16179;SDS011;8196;49.428;10.906;2023-03-16T11:21:49;2.17;;;1.80;;
16179;SDS011;8196;49.428;10.906;2023-03-16T11:24:39;2.30;;;1.70;;
16179;SDS011;8196;49.428;10.906;2023-03-16T11:30:19;2.35;;;1.90;;
16179;SDS011;8196;49.428;10.906;2023-03-16T11:32:56;2.50;;;1.90;;
16179;SDS011;8196;49.428;10.906;2023-03-16T11:38:14;2.40;;;2.03;;
16179;SDS011;8196;49.428;10.906;2023-03-16T11:56:48;2.20;;;2.00;;
16179;SDS011;8196;49.428;10.906;2023-03-16T12:02:19;2.72;;;2.08;;
16179;SDS011;8196;49.428;10.906;2023-03-16T12:10:44;2.00;;;1.80;;
16179;SDS011;8196;49.428;10.906;2023-03-16T12:15:57;2.58;;;2.10;;
16179;SDS011;8196;49.428;10.906;2023-03-16T12:18:37;1.85;;;1.70;;
16179;SDS011;8196;49.428;10.906;2023-03-16T12:21:12;2.53;;;1.80;;
16179;SDS011;8196;49.428;10.906;2023-03-16T12:26:20;2.53;;;2.17;;
16179;SDS011;8196;49.428;10.906;2023-03-16T12:28:51;2.22;;;2.03;;
16179;SDS011;8196;49.428;10.906;2023-03-16T12:31:39;2.95;;;1.85;;
16179;SDS011;8196;49.428;10.906;2023-03-16T12:39:20;2.35;;;2.10;;
16179;SDS011;8196;49.428;10.906;2023-03-16T12:42:02;2.20;;;2.00;;
16179;SDS011;8196;49.428;10.906;2023-03-16T12:44:32;2.35;;;2.15;;
16179;SDS011;8196;49.428;10.906;2023-03-16T12:47:27;2.15;;;1.95;;
16179;SDS011;8196;49.428;10.906;2023-03-16T12:50:16;2.90;;;1.90;;
16179;SDS011;8196;49.428;10.906;2023-03-16T12:52:46;2.30;;;2.10;;
16179;SDS011;8196;49.428;10.906;2023-03-16T12:55:16;2.17;;;1.92;;
16179;SDS011;8196;49.428;10.906;2023-03-16T12:57:45;2.40;;;1.95;;
16179;SDS011;8196;49.428;10.906;2023-03-16T13:00:16;2.58;;;2.33;;
16179;SDS011;8196;49.428;10.906;2023-03-16T13:02:48;2.50;;;2.30;;
16179;SDS011;8196;49.428;10.906;2023-03-16T13:05:27;3.58;;;2.25;;
16179;SDS011;8196;49.428;10.906;2023-03-16T13:08:16;2.50;;;2.03;;
16179;SDS011;8196;49.428;10.906;2023-03-16T13:13:29;2.70;;;2.20;;
16179;SDS011;8196;49.428;10.906;2023-03-16T13:16:06;2.35;;;2.00;;
16179;SDS011;8196;49.428;10.906;2023-03-16T13:18:36;2.30;;;2.10;;
16179;SDS011;8196;49.428;10.906;2023-03-16T13:21:15;2.45;;;2.15;;
16179;SDS011;8196;49.428;10.906;2023-03-16T13:23:46;2.13;;;1.92;;
16179;SDS011;8196;49.428;10.906;2023-03-16T13:26:30;2.30;;;2.10;;
16179;SDS011;8196;49.428;10.906;2023-03-16T13:29:09;2.20;;;2.00;;
16179;SDS011;8196;49.428;10.906;2023-03-16T13:31:53;2.50;;;2.15;;
16179;SDS011;8196;49.428;10.906;2023-03-16T13:34:25;2.05;;;1.85;;
16179;SDS011;8196;49.428;10.906;2023-03-16T13:36:58;2.33;;;2.13;;
16179;SDS011;8196;49.428;10.906;2023-03-16T13:39:28;2.60;;;2.35;;
16179;SDS011;8196;49.428;10.906;2023-03-16T13:42:01;2.50;;;1.92;;
16179;SDS011;8196;49.428;10.906;2023-03-16T13:44:28;2.45;;;2.25;;
16179;SDS011;8196;49.428;10.906;2023-03-16T13:46:56;2.95;;;2.28;;
16179;SDS011;8196;49.428;10.906;2023-03-16T13:49:28;2.55;;;2.35;;
16179;SDS011;8196;49.428;10.906;2023-03-16T13:51:55;2.53;;;2.33;;
16179;SDS011;8196;49.428;10.906;2023-03-16T13:54:24;3.50;;;2.10;;
16179;SDS011;8196;49.428;10.906;2023-03-16T13:56:56;2.28;;;2.08;;
16179;SDS011;8196;49.428;10.906;2023-03-16T13:59:25;2.25;;;2.05;;
16179;SDS011;8196;49.428;10.906;2023-03-16T14:01:54;2.20;;;2.00;;
16179;SDS011;8196;49.428;10.906;2023-03-16T14:04:25;4.20;;;1.90;;
16179;SDS011;8196;49.428;10.906;2023-03-16T14:06:56;2.27;;;2.07;;
16179;SDS011;8196;49.428;10.906;2023-03-16T14:09:27;2.13;;;1.90;;
16179;SDS011;8196;49.428;10.906;2023-03-16T14:11:58;2.20;;;2.00;;
16179;SDS011;8196;49.428;10.906;2023-03-16T14:14:27;2.30;;;2.05;;
16179;SDS011;8196;49.428;10.906;2023-03-16T14:16:59;2.60;;;2.05;;
16179;SDS011;8196;49.428;10.906;2023-03-16T14:19:33;2.47;;;2.28;;
16179;SDS011;8196;49.428;10.906;2023-03-16T14:22:10;2.05;;;1.90;;
16179;SDS011;8196;49.428;10.906;2023-03-16T14:24:38;2.00;;;1.90;;
16179;SDS011;8196;49.428;10.906;2023-03-16T14:27:25;2.13;;;1.90;;
16179;SDS011;8196;49.428;10.906;2023-03-16T14:29:59;2.30;;;2.10;;
16179;SDS011;8196;49.428;10.906;2023-03-16T14:32:40;2.15;;;1.98;;
16179;SDS011;8196;49.428;10.906;2023-03-16T14:35:11;2.20;;;1.97;;
16179;SDS011;8196;49.428;10.906;2023-03-16T14:37:40;2.58;;;1.83;;
16179;SDS011;8196;49.428;10.906;2023-03-16T14:40:25;1.95;;;1.75;;
16179;SDS011;8196;49.428;10.906;2023-03-16T14:42:57;2.60;;;2.00;;
16179;SDS011;8196;49.428;10.906;2023-03-16T14:45:31;2.20;;;2.00;;
16179;SDS011;8196;49.428;10.906;2023-03-16T14:48:05;2.10;;;1.90;;
16179;SDS011;8196;49.428;10.906;2023-03-16T14:50:35;2.20;;;2.00;;
16179;SDS011;8196;49.428;10.906;2023-03-16T14:53:04;2.13;;;1.77;;
16179;SDS011;8196;49.428;10.906;2023-03-16T14:55:32;2.10;;;1.90;;
16179;SDS011;8196;49.428;10.906;2023-03-16T14:57:58;2.42;;;2.05;;
16179;SDS011;8196;49.428;10.906;2023-03-16T15:00:25;2.70;;;2.40;;
16179;SDS011;8196;49.428;10.906;2023-03-16T15:02:54;2.35;;;2.15;;
16179;SDS011;8196;49.428;10.906;2023-03-16T15:05:32;2.53;;;1.95;;
16179;SDS011;8196;49.428;10.906;2023-03-16T15:08:02;3.20;;;2.25;;
16179;SDS011;8196;49.428;10.906;2023-03-16T15:10:31;2.60;;;1.90;;
16179;SDS011;8196;49.428;10.906;2023-03-16T15:13:00;3.45;;;2.20;;
16179;SDS011;8196;49.428;10.906;2023-03-16T15:15:38;2.10;;;1.90;;
16179;SDS011;8196;49.428;10.906;2023-03-16T15:18:07;2.38;;;2.00;;
16179;SDS011;8196;49.428;10.906;2023-03-16T15:20:37;4.15;;;2.40;;
16179;SDS011;8196;49.428;10.906;2023-03-16T15:23:11;2.90;;;2.30;;
16179;SDS011;8196;49.428;10.906;2023-03-16T15:25:41;2.10;;;1.90;;
16179;SDS011;8196;49.428;10.906;2023-03-16T15:28:11;3.45;;;2.20;;
16179;SDS011;8196;49.428;10.906;2023-03-16T15:30:44;2.42;;;2.17;;
16179;SDS011;8196;49.428;10.906;2023-03-16T15:33:13;2.60;;;2.40;;
16179;SDS011;8196;49.428;10.906;2023-03-16T15:35:40;2.67;;;2.05;;
16179;SDS011;8196;49.428;10.906;2023-03-16T15:38:13;2.65;;;2.25;;
16179;SDS011;8196;49.428;10.906;2023-03-16T15:40:46;2.50;;;2.03;;
16179;SDS011;8196;49.428;10.906;2023-03-16T15:43:20;2.33;;;2.13;;
16179;SDS011;8196;49.428;10.906;2023-03-16T15:45:48;2.47;;;2.28;;
16179;SDS011;8196;49.428;10.906;2023-03-16T15:48:17;3.53;;;2.50;;
16179;SDS011;8196;49.428;10.906;2023-03-16T15:50:50;2.30;;;2.10;;
16179;SDS011;8196;49.428;10.906;2023-03-16T15:55:58;2.70;;;2.40;;
16179;SDS011;8196;49.428;10.906;2023-03-16T15:58:28;3.20;;;2.50;;
16179;SDS011;8196;49.428;10.906;2023-03-16T16:00:57;4.03;;;3.20;;
16179;SDS011;8196;49.428;10.906;2023-03-16T16:03:25;3.10;;;2.50;;
16179;SDS011;8196;49.428;10.906;2023-03-16T16:05:52;2.97;;;2.60;;
16179;SDS011;8196;49.428;10.906;2023-03-16T16:08:20;2.60;;;2.40;;
16179;SDS011;8196;49.428;10.906;2023-03-16T16:10:47;2.50;;;2.30;;
16179;SDS011;8196;49.428;10.906;2023-03-16T16:13:17;2.50;;;2.30;;
16179;SDS011;8196;49.428;10.906;2023-03-16T16:15:45;4.53;;;2.80;;